sensor_id;sensor_type;location;lat;lon;timestamp;P1;durP1;ratioP1;P2;durP2;ratioP2
46551;SDS011;32278;51.810;4.712;2024-01-15T00:01:56;20.55;;;8.77;;
46551;SDS011;32278;51.810;4.712;2024-01-15T00:04:22;20.65;;;8.15;;
46551;SDS011;32278;51.810;4.712;2024-01-15T00:06:48;17.45;;;7.95;;
46551;SDS011;32278;51.810;4.712;2024-01-15T00:09:14;20.25;;;7.68;;
46551;SDS011;32278;51.810;4.712;2024-01-15T00:11:41;21.40;;;7.90;;
46551;SDS011;32278;51.810;4.712;2024-01-15T00:14:07;19.02;;;7.28;;
46551;SDS011;32278;51.810;4.712;2024-01-15T00:16:33;21.13;;;7.75;;
46551;SDS011;32278;51.810;4.712;2024-01-15T00:18:58;11.48;;;7.32;;
46551;SDS011;32278;51.810;4.712;2024-01-15T00:21:24;13.20;;;6.93;;
46551;SDS011;32278;51.810;4.712;2024-01-15T00:23:50;13.60;;;7.80;;
46551;SDS011;32278;51.810;4.712;2024-01-15T00:26:16;14.45;;;7.63;;
46551;SDS011;32278;51.810;4.712;2024-01-15T00:28:42;14.93;;;7.85;;
46551;SDS011;32278;51.810;4.712;2024-01-15T00:31:08;10.70;;;7.60;;
46551;SDS011;32278;51.810;4.712;2024-01-15T00:33:34;13.73;;;7.35;;
46551;SDS011;32278;51.810;4.712;2024-01-15T00:36:00;19.00;;;6.43;;
46551;SDS011;32278;51.810;4.712;2024-01-15T00:38:26;13.68;;;6.30;;
46551;SDS011;32278;51.810;4.712;2024-01-15T00:40:52;16.88;;;5.60;;
46551;SDS011;32278;51.810;4.712;2024-01-15T00:43:18;20.15;;;6.32;;
46551;SDS011;32278;51.810;4.712;2024-01-15T00:45:44;18.70;;;6.93;;
46551;SDS011;32278;51.810;4.712;2024-01-15T00:48:10;15.85;;;6.32;;
46551;SDS011;32278;51.810;4.712;2024-01-15T00:50:36;11.90;;;5.63;;
46551;SDS011;32278;51.810;4.712;2024-01-15T00:53:02;14.27;;;6.47;;
46551;SDS011;32278;51.810;4.712;2024-01-15T00:55:28;15.70;;;6.50;;
46551;SDS011;32278;51.810;4.712;2024-01-15T00:57:54;18.98;;;6.47;;
46551;SDS011;32278;51.810;4.712;2024-01-15T01:00:21;13.60;;;6.80;;
46551;SDS011;32278;51.810;4.712;2024-01-15T01:02:46;16.52;;;8.00;;
46551;SDS011;32278;51.810;4.712;2024-01-15T01:05:12;16.17;;;5.88;;
46551;SDS011;32278;51.810;4.712;2024-01-15T01:07:39;20.05;;;7.10;;
46551;SDS011;32278;51.810;4.712;2024-01-15T01:10:05;16.88;;;6.88;;
46551;SDS011;32278;51.810;4.712;2024-01-15T01:12:31;17.27;;;5.30;;
46551;SDS011;32278;51.810;4.712;2024-01-15T01:14:57;13.93;;;5.47;;
46551;SDS011;32278;51.810;4.712;2024-01-15T01:17:23;14.30;;;5.93;;
46551;SDS011;32278;51.810;4.712;2024-01-15T01:19:49;11.05;;;5.38;;
46551;SDS011;32278;51.810;4.712;2024-01-15T01:22:15;22.08;;;6.30;;
46551;SDS011;32278;51.810;4.712;2024-01-15T01:24:41;17.52;;;6.05;;
46551;SDS011;32278;51.810;4.712;2024-01-15T01:27:07;22.17;;;7.03;;
46551;SDS011;32278;51.810;4.712;2024-01-15T01:29:33;20.33;;;7.38;;
46551;SDS011;32278;51.810;4.712;2024-01-15T01:31:59;19.88;;;7.28;;
46551;SDS011;32278;51.810;4.712;2024-01-15T01:34:25;23.92;;;7.18;;
46551;SDS011;32278;51.810;4.712;2024-01-15T01:36:51;23.20;;;7.95;;
46551;SDS011;32278;51.810;4.712;2024-01-15T01:39:17;19.98;;;7.82;;
46551;SDS011;32278;51.810;4.712;2024-01-15T01:41:43;23.88;;;6.10;;
46551;SDS011;32278;51.810;4.712;2024-01-15T01:44:09;18.85;;;5.47;;
46551;SDS011;32278;51.810;4.712;2024-01-15T01:46:35;15.90;;;6.38;;
46551;SDS011;32278;51.810;4.712;2024-01-15T01:49:05;18.95;;;5.40;;
46551;SDS011;32278;51.810;4.712;2024-01-15T01:51:32;25.83;;;6.78;;
46551;SDS011;32278;51.810;4.712;2024-01-15T01:53:59;19.42;;;6.50;;
46551;SDS011;32278;51.810;4.712;2024-01-15T01:56:25;18.23;;;7.28;;
46551;SDS011;32278;51.810;4.712;2024-01-15T01:58:52;19.48;;;7.47;;
46551;SDS011;32278;51.810;4.712;2024-01-15T02:01:18;18.27;;;7.40;;
46551;SDS011;32278;51.810;4.712;2024-01-15T02:03:44;29.52;;;6.57;;
46551;SDS011;32278;51.810;4.712;2024-01-15T02:06:10;15.07;;;7.05;;
46551;SDS011;32278;51.810;4.712;2024-01-15T02:08:37;15.32;;;6.80;;
46551;SDS011;32278;51.810;4.712;2024-01-15T02:11:03;15.32;;;6.82;;
46551;SDS011;32278;51.810;4.712;2024-01-15T02:13:29;11.60;;;6.32;;
46551;SDS011;32278;51.810;4.712;2024-01-15T02:15:55;19.75;;;6.35;;
46551;SDS011;32278;51.810;4.712;2024-01-15T02:18:21;15.82;;;6.57;;
46551;SDS011;32278;51.810;4.712;2024-01-15T02:20:47;10.55;;;5.53;;
46551;SDS011;32278;51.810;4.712;2024-01-15T02:23:13;13.25;;;6.10;;
46551;SDS011;32278;51.810;4.712;2024-01-15T02:25:40;18.38;;;6.15;;
46551;SDS011;32278;51.810;4.712;2024-01-15T02:28:11;14.43;;;6.50;;
46551;SDS011;32278;51.810;4.712;2024-01-15T02:30:37;14.90;;;5.95;;
46551;SDS011;32278;51.810;4.712;2024-01-15T02:33:04;13.10;;;6.65;;
46551;SDS011;32278;51.810;4.712;2024-01-15T02:35:30;15.85;;;6.97;;
46551;SDS011;32278;51.810;4.712;2024-01-15T02:37:56;18.95;;;6.55;;
46551;SDS011;32278;51.810;4.712;2024-01-15T02:40:22;12.55;;;6.22;;
46551;SDS011;32278;51.810;4.712;2024-01-15T02:42:48;18.17;;;6.03;;
46551;SDS011;32278;51.810;4.712;2024-01-15T02:45:14;16.85;;;6.75;;
46551;SDS011;32278;51.810;4.712;2024-01-15T02:47:40;14.52;;;6.93;;
46551;SDS011;32278;51.810;4.712;2024-01-15T02:50:06;16.88;;;7.82;;
46551;SDS011;32278;51.810;4.712;2024-01-15T02:52:32;18.30;;;8.05;;
46551;SDS011;32278;51.810;4.712;2024-01-15T02:54:58;15.95;;;7.70;;
46551;SDS011;32278;51.810;4.712;2024-01-15T02:57:24;14.30;;;7.25;;
46551;SDS011;32278;51.810;4.712;2024-01-15T02:59:50;20.55;;;8.05;;
46551;SDS011;32278;51.810;4.712;2024-01-15T03:02:16;21.42;;;8.43;;
46551;SDS011;32278;51.810;4.712;2024-01-15T03:04:45;28.35;;;8.55;;
46551;SDS011;32278;51.810;4.712;2024-01-15T03:07:11;13.75;;;8.00;;
46551;SDS011;32278;51.810;4.712;2024-01-15T03:09:37;13.13;;;7.72;;
46551;SDS011;32278;51.810;4.712;2024-01-15T03:12:03;17.52;;;8.27;;
46551;SDS011;32278;51.810;4.712;2024-01-15T03:14:29;16.05;;;7.20;;
46551;SDS011;32278;51.810;4.712;2024-01-15T03:16:55;15.23;;;7.13;;
46551;SDS011;32278;51.810;4.712;2024-01-15T03:19:21;12.32;;;6.88;;
46551;SDS011;32278;51.810;4.712;2024-01-15T03:21:47;14.20;;;7.20;;
46551;SDS011;32278;51.810;4.712;2024-01-15T03:24:13;12.73;;;6.90;;
46551;SDS011;32278;51.810;4.712;2024-01-15T03:26:39;19.30;;;7.88;;
46551;SDS011;32278;51.810;4.712;2024-01-15T03:29:05;11.73;;;7.00;;
46551;SDS011;32278;51.810;4.712;2024-01-15T03:31:32;16.58;;;6.30;;
46551;SDS011;32278;51.810;4.712;2024-01-15T03:33:58;15.85;;;7.32;;
46551;SDS011;32278;51.810;4.712;2024-01-15T03:36:24;12.43;;;7.22;;
46551;SDS011;32278;51.810;4.712;2024-01-15T03:38:50;14.65;;;6.65;;
46551;SDS011;32278;51.810;4.712;2024-01-15T03:41:16;11.75;;;7.10;;
46551;SDS011;32278;51.810;4.712;2024-01-15T03:43:42;10.82;;;7.50;;
46551;SDS011;32278;51.810;4.712;2024-01-15T03:46:08;15.95;;;5.65;;
46551;SDS011;32278;51.810;4.712;2024-01-15T03:48:34;11.75;;;6.05;;
46551;SDS011;32278;51.810;4.712;2024-01-15T03:50:59;11.45;;;6.00;;
46551;SDS011;32278;51.810;4.712;2024-01-15T03:53:25;17.52;;;6.45;;
46551;SDS011;32278;51.810;4.712;2024-01-15T03:55:51;12.40;;;6.55;;
46551;SDS011;32278;51.810;4.712;2024-01-15T03:58:17;8.50;;;7.10;;
46551;SDS011;32278;51.810;4.712;2024-01-15T04:00:43;8.88;;;7.70;;
46551;SDS011;32278;51.810;4.712;2024-01-15T04:03:09;9.82;;;7.65;;
46551;SDS011;32278;51.810;4.712;2024-01-15T04:05:35;8.57;;;7.78;;
46551;SDS011;32278;51.810;4.712;2024-01-15T04:08:01;9.40;;;8.55;;
46551;SDS011;32278;51.810;4.712;2024-01-15T04:10:27;8.77;;;7.97;;
46551;SDS011;32278;51.810;4.712;2024-01-15T04:12:53;10.57;;;8.65;;
46551;SDS011;32278;51.810;4.712;2024-01-15T04:15:19;8.85;;;7.95;;
46551;SDS011;32278;51.810;4.712;2024-01-15T04:17:45;13.32;;;7.50;;
46551;SDS011;32278;51.810;4.712;2024-01-15T04:20:11;14.52;;;7.38;;
46551;SDS011;32278;51.810;4.712;2024-01-15T04:22:37;13.48;;;8.73;;
46551;SDS011;32278;51.810;4.712;2024-01-15T04:25:03;14.30;;;7.85;;
46551;SDS011;32278;51.810;4.712;2024-01-15T04:27:30;13.38;;;7.68;;
46551;SDS011;32278;51.810;4.712;2024-01-15T04:29:56;10.13;;;7.75;;
46551;SDS011;32278;51.810;4.712;2024-01-15T04:32:22;11.35;;;7.82;;
46551;SDS011;32278;51.810;4.712;2024-01-15T04:34:48;9.35;;;8.02;;
46551;SDS011;32278;51.810;4.712;2024-01-15T04:37:14;16.65;;;8.15;;
46551;SDS011;32278;51.810;4.712;2024-01-15T04:39:40;14.38;;;7.53;;
46551;SDS011;32278;51.810;4.712;2024-01-15T04:42:06;11.93;;;7.15;;
46551;SDS011;32278;51.810;4.712;2024-01-15T04:44:31;10.95;;;7.32;;
46551;SDS011;32278;51.810;4.712;2024-01-15T04:46:57;9.75;;;6.18;;
46551;SDS011;32278;51.810;4.712;2024-01-15T04:49:23;13.55;;;6.97;;
46551;SDS011;32278;51.810;4.712;2024-01-15T04:51:52;11.02;;;5.88;;
46551;SDS011;32278;51.810;4.712;2024-01-15T04:54:18;8.18;;;4.80;;
46551;SDS011;32278;51.810;4.712;2024-01-15T04:56:45;5.13;;;3.20;;
46551;SDS011;32278;51.810;4.712;2024-01-15T04:59:11;4.05;;;3.75;;
46551;SDS011;32278;51.810;4.712;2024-01-15T05:01:37;6.65;;;4.45;;
46551;SDS011;32278;51.810;4.712;2024-01-15T05:04:03;4.57;;;3.88;;
46551;SDS011;32278;51.810;4.712;2024-01-15T05:06:29;6.75;;;4.32;;
46551;SDS011;32278;51.810;4.712;2024-01-15T05:08:55;11.75;;;4.25;;
46551;SDS011;32278;51.810;4.712;2024-01-15T05:11:21;6.40;;;4.85;;
46551;SDS011;32278;51.810;4.712;2024-01-15T05:13:47;3.83;;;3.53;;
46551;SDS011;32278;51.810;4.712;2024-01-15T05:16:13;5.15;;;3.25;;
46551;SDS011;32278;51.810;4.712;2024-01-15T05:18:39;4.45;;;3.20;;
46551;SDS011;32278;51.810;4.712;2024-01-15T05:21:05;4.00;;;2.65;;
46551;SDS011;32278;51.810;4.712;2024-01-15T05:23:31;7.68;;;3.30;;
46551;SDS011;32278;51.810;4.712;2024-01-15T05:25:57;5.13;;;2.30;;
46551;SDS011;32278;51.810;4.712;2024-01-15T05:28:23;7.85;;;3.10;;
46551;SDS011;32278;51.810;4.712;2024-01-15T05:30:49;6.80;;;2.50;;
46551;SDS011;32278;51.810;4.712;2024-01-15T05:33:16;10.60;;;6.25;;
46551;SDS011;32278;51.810;4.712;2024-01-15T05:35:42;7.35;;;3.50;;
46551;SDS011;32278;51.810;4.712;2024-01-15T05:38:08;9.10;;;4.45;;
46551;SDS011;32278;51.810;4.712;2024-01-15T05:40:34;9.15;;;3.88;;
46551;SDS011;32278;51.810;4.712;2024-01-15T05:43:00;6.05;;;3.95;;
46551;SDS011;32278;51.810;4.712;2024-01-15T05:45:26;11.82;;;4.35;;
46551;SDS011;32278;51.810;4.712;2024-01-15T05:47:52;3.25;;;2.70;;
46551;SDS011;32278;51.810;4.712;2024-01-15T05:50:18;5.10;;;3.17;;
46551;SDS011;32278;51.810;4.712;2024-01-15T05:52:44;6.57;;;2.92;;
46551;SDS011;32278;51.810;4.712;2024-01-15T05:55:10;5.80;;;3.22;;
46551;SDS011;32278;51.810;4.712;2024-01-15T05:57:36;10.13;;;2.90;;
46551;SDS011;32278;51.810;4.712;2024-01-15T06:00:03;11.07;;;2.33;;
46551;SDS011;32278;51.810;4.712;2024-01-15T06:02:29;6.32;;;2.63;;
46551;SDS011;32278;51.810;4.712;2024-01-15T06:04:55;7.72;;;3.20;;
46551;SDS011;32278;51.810;4.712;2024-01-15T06:07:22;9.70;;;3.22;;
46551;SDS011;32278;51.810;4.712;2024-01-15T06:09:48;8.70;;;3.78;;
46551;SDS011;32278;51.810;4.712;2024-01-15T06:12:15;8.60;;;4.85;;
46551;SDS011;32278;51.810;4.712;2024-01-15T06:14:40;10.73;;;5.43;;
46551;SDS011;32278;51.810;4.712;2024-01-15T06:17:07;7.72;;;5.40;;
46551;SDS011;32278;51.810;4.712;2024-01-15T06:19:33;9.73;;;5.72;;
46551;SDS011;32278;51.810;4.712;2024-01-15T06:21:59;7.20;;;4.75;;
46551;SDS011;32278;51.810;4.712;2024-01-15T06:24:25;8.90;;;4.50;;
46551;SDS011;32278;51.810;4.712;2024-01-15T06:26:51;11.27;;;4.75;;
46551;SDS011;32278;51.810;4.712;2024-01-15T06:29:17;7.65;;;4.40;;
46551;SDS011;32278;51.810;4.712;2024-01-15T06:31:43;8.43;;;5.40;;
46551;SDS011;32278;51.810;4.712;2024-01-15T06:34:09;12.65;;;6.03;;
46551;SDS011;32278;51.810;4.712;2024-01-15T06:36:35;10.70;;;5.55;;
46551;SDS011;32278;51.810;4.712;2024-01-15T06:39:01;7.93;;;4.82;;
46551;SDS011;32278;51.810;4.712;2024-01-15T06:41:27;9.55;;;3.50;;
46551;SDS011;32278;51.810;4.712;2024-01-15T06:43:53;10.60;;;4.97;;
46551;SDS011;32278;51.810;4.712;2024-01-15T06:46:20;8.70;;;3.40;;
46551;SDS011;32278;51.810;4.712;2024-01-15T06:48:47;9.05;;;3.00;;
46551;SDS011;32278;51.810;4.712;2024-01-15T06:51:13;4.95;;;2.53;;
46551;SDS011;32278;51.810;4.712;2024-01-15T06:53:38;4.55;;;2.15;;
46551;SDS011;32278;51.810;4.712;2024-01-15T06:56:04;2.47;;;1.95;;
46551;SDS011;32278;51.810;4.712;2024-01-15T06:58:30;2.97;;;2.10;;
46551;SDS011;32278;51.810;4.712;2024-01-15T07:00:56;2.60;;;1.92;;
46551;SDS011;32278;51.810;4.712;2024-01-15T07:03:23;6.90;;;2.00;;
46551;SDS011;32278;51.810;4.712;2024-01-15T07:05:49;3.97;;;1.95;;
46551;SDS011;32278;51.810;4.712;2024-01-15T07:08:15;3.58;;;1.60;;
46551;SDS011;32278;51.810;4.712;2024-01-15T07:10:41;5.05;;;1.80;;
46551;SDS011;32278;51.810;4.712;2024-01-15T07:13:07;6.68;;;2.20;;
46551;SDS011;32278;51.810;4.712;2024-01-15T07:15:33;6.30;;;2.53;;
46551;SDS011;32278;51.810;4.712;2024-01-15T07:17:59;3.95;;;2.30;;
46551;SDS011;32278;51.810;4.712;2024-01-15T07:20:25;8.35;;;2.35;;
46551;SDS011;32278;51.810;4.712;2024-01-15T07:22:51;7.50;;;2.75;;
46551;SDS011;32278;51.810;4.712;2024-01-15T07:25:17;15.20;;;4.40;;
46551;SDS011;32278;51.810;4.712;2024-01-15T07:27:43;9.10;;;3.42;;
46551;SDS011;32278;51.810;4.712;2024-01-15T07:30:12;8.32;;;3.08;;
46551;SDS011;32278;51.810;4.712;2024-01-15T07:32:38;8.45;;;2.90;;
46551;SDS011;32278;51.810;4.712;2024-01-15T07:35:05;11.98;;;4.03;;
46551;SDS011;32278;51.810;4.712;2024-01-15T07:37:31;14.88;;;5.30;;
46551;SDS011;32278;51.810;4.712;2024-01-15T07:39:58;12.50;;;5.68;;
46551;SDS011;32278;51.810;4.712;2024-01-15T07:42:24;9.05;;;5.72;;
46551;SDS011;32278;51.810;4.712;2024-01-15T07:44:50;16.58;;;6.32;;
46551;SDS011;32278;51.810;4.712;2024-01-15T07:47:16;14.88;;;6.00;;
46551;SDS011;32278;51.810;4.712;2024-01-15T07:49:42;17.38;;;6.97;;
46551;SDS011;32278;51.810;4.712;2024-01-15T07:52:09;11.95;;;7.28;;
46551;SDS011;32278;51.810;4.712;2024-01-15T07:54:36;10.02;;;6.75;;
46551;SDS011;32278;51.810;4.712;2024-01-15T07:57:02;16.27;;;7.38;;
46551;SDS011;32278;51.810;4.712;2024-01-15T07:59:28;16.35;;;7.43;;
46551;SDS011;32278;51.810;4.712;2024-01-15T08:01:54;11.68;;;6.32;;
46551;SDS011;32278;51.810;4.712;2024-01-15T08:04:20;13.07;;;7.20;;
46551;SDS011;32278;51.810;4.712;2024-01-15T08:06:49;9.15;;;6.90;;
46551;SDS011;32278;51.810;4.712;2024-01-15T08:09:15;16.40;;;6.93;;
46551;SDS011;32278;51.810;4.712;2024-01-15T08:11:41;13.27;;;5.72;;
46551;SDS011;32278;51.810;4.712;2024-01-15T08:14:08;12.13;;;5.35;;
46551;SDS011;32278;51.810;4.712;2024-01-15T08:16:34;16.88;;;5.43;;
46551;SDS011;32278;51.810;4.712;2024-01-15T08:19:00;21.67;;;5.18;;
46551;SDS011;32278;51.810;4.712;2024-01-15T08:21:26;15.48;;;5.07;;
46551;SDS011;32278;51.810;4.712;2024-01-15T08:23:55;16.58;;;5.18;;
46551;SDS011;32278;51.810;4.712;2024-01-15T08:26:21;17.27;;;4.35;;
46551;SDS011;32278;51.810;4.712;2024-01-15T08:28:47;19.85;;;4.25;;
46551;SDS011;32278;51.810;4.712;2024-01-15T08:31:13;9.13;;;4.05;;
46551;SDS011;32278;51.810;4.712;2024-01-15T08:33:39;9.10;;;3.45;;
46551;SDS011;32278;51.810;4.712;2024-01-15T08:36:05;15.15;;;3.70;;
46551;SDS011;32278;51.810;4.712;2024-01-15T08:38:31;10.52;;;3.70;;
46551;SDS011;32278;51.810;4.712;2024-01-15T08:40:57;11.23;;;3.15;;
46551;SDS011;32278;51.810;4.712;2024-01-15T08:43:25;15.63;;;3.67;;
46551;SDS011;32278;51.810;4.712;2024-01-15T08:45:51;15.93;;;3.25;;
46551;SDS011;32278;51.810;4.712;2024-01-15T08:48:17;18.45;;;3.85;;
46551;SDS011;32278;51.810;4.712;2024-01-15T08:50:43;15.13;;;4.10;;
46551;SDS011;32278;51.810;4.712;2024-01-15T08:53:12;11.48;;;3.75;;
46551;SDS011;32278;51.810;4.712;2024-01-15T08:55:38;26.80;;;4.10;;
46551;SDS011;32278;51.810;4.712;2024-01-15T08:58:04;16.17;;;3.33;;
46551;SDS011;32278;51.810;4.712;2024-01-15T09:00:31;8.43;;;3.95;;
46551;SDS011;32278;51.810;4.712;2024-01-15T09:02:57;13.90;;;4.00;;
46551;SDS011;32278;51.810;4.712;2024-01-15T09:05:23;12.93;;;4.03;;
46551;SDS011;32278;51.810;4.712;2024-01-15T09:07:49;13.48;;;4.40;;
46551;SDS011;32278;51.810;4.712;2024-01-15T09:10:17;12.60;;;3.55;;
46551;SDS011;32278;51.810;4.712;2024-01-15T09:12:43;10.82;;;4.10;;
46551;SDS011;32278;51.810;4.712;2024-01-15T09:15:09;7.20;;;2.80;;
46551;SDS011;32278;51.810;4.712;2024-01-15T09:17:35;8.65;;;3.28;;
46551;SDS011;32278;51.810;4.712;2024-01-15T09:20:01;6.88;;;3.10;;
46551;SDS011;32278;51.810;4.712;2024-01-15T09:22:29;10.02;;;3.70;;
46551;SDS011;32278;51.810;4.712;2024-01-15T09:24:55;9.60;;;3.72;;
46551;SDS011;32278;51.810;4.712;2024-01-15T09:27:21;5.28;;;2.95;;
46551;SDS011;32278;51.810;4.712;2024-01-15T09:29:47;12.05;;;3.25;;
46551;SDS011;32278;51.810;4.712;2024-01-15T09:32:13;9.65;;;3.00;;
46551;SDS011;32278;51.810;4.712;2024-01-15T09:34:39;13.00;;;3.25;;
46551;SDS011;32278;51.810;4.712;2024-01-15T09:37:06;14.85;;;3.38;;
46551;SDS011;32278;51.810;4.712;2024-01-15T09:39:32;11.35;;;3.70;;
46551;SDS011;32278;51.810;4.712;2024-01-15T09:41:58;7.68;;;3.17;;
46551;SDS011;32278;51.810;4.712;2024-01-15T09:44:24;9.43;;;3.28;;
46551;SDS011;32278;51.810;4.712;2024-01-15T09:46:51;12.70;;;3.40;;
46551;SDS011;32278;51.810;4.712;2024-01-15T09:49:17;11.15;;;3.70;;
46551;SDS011;32278;51.810;4.712;2024-01-15T09:51:44;20.92;;;3.10;;
46551;SDS011;32278;51.810;4.712;2024-01-15T09:54:10;6.85;;;2.80;;
46551;SDS011;32278;51.810;4.712;2024-01-15T09:56:38;14.35;;;2.97;;
46551;SDS011;32278;51.810;4.712;2024-01-15T09:59:05;11.43;;;2.60;;
46551;SDS011;32278;51.810;4.712;2024-01-15T10:01:31;12.75;;;2.60;;
46551;SDS011;32278;51.810;4.712;2024-01-15T10:03:57;6.78;;;2.70;;
46551;SDS011;32278;51.810;4.712;2024-01-15T10:06:23;9.93;;;3.20;;
46551;SDS011;32278;51.810;4.712;2024-01-15T10:08:53;9.55;;;3.17;;
46551;SDS011;32278;51.810;4.712;2024-01-15T10:11:19;11.15;;;3.00;;
46551;SDS011;32278;51.810;4.712;2024-01-15T10:13:46;12.55;;;3.70;;
46551;SDS011;32278;51.810;4.712;2024-01-15T10:16:17;13.57;;;3.72;;
46551;SDS011;32278;51.810;4.712;2024-01-15T10:18:43;13.57;;;3.70;;
46551;SDS011;32278;51.810;4.712;2024-01-15T10:21:09;11.63;;;3.83;;
46551;SDS011;32278;51.810;4.712;2024-01-15T10:23:35;9.23;;;2.85;;
46551;SDS011;32278;51.810;4.712;2024-01-15T10:26:01;10.00;;;4.18;;
46551;SDS011;32278;51.810;4.712;2024-01-15T10:28:27;11.80;;;3.80;;
46551;SDS011;32278;51.810;4.712;2024-01-15T10:30:55;13.18;;;4.75;;
46551;SDS011;32278;51.810;4.712;2024-01-15T10:33:22;20.08;;;5.28;;
46551;SDS011;32278;51.810;4.712;2024-01-15T10:35:55;16.83;;;5.10;;
46551;SDS011;32278;51.810;4.712;2024-01-15T10:38:21;13.32;;;5.25;;
46551;SDS011;32278;51.810;4.712;2024-01-15T10:40:48;9.18;;;3.78;;
46551;SDS011;32278;51.810;4.712;2024-01-15T10:43:16;8.57;;;3.40;;
46551;SDS011;32278;51.810;4.712;2024-01-15T10:45:45;4.75;;;3.80;;
46551;SDS011;32278;51.810;4.712;2024-01-15T10:48:12;7.22;;;4.25;;
46551;SDS011;32278;51.810;4.712;2024-01-15T10:50:38;9.80;;;4.13;;
46551;SDS011;32278;51.810;4.712;2024-01-15T10:53:04;9.23;;;3.83;;
46551;SDS011;32278;51.810;4.712;2024-01-15T10:55:31;5.80;;;4.25;;
46551;SDS011;32278;51.810;4.712;2024-01-15T10:57:57;6.60;;;5.28;;
46551;SDS011;32278;51.810;4.712;2024-01-15T11:00:23;12.07;;;4.35;;
46551;SDS011;32278;51.810;4.712;2024-01-15T11:02:50;10.57;;;4.78;;
46551;SDS011;32278;51.810;4.712;2024-01-15T11:05:20;8.98;;;5.30;;
46551;SDS011;32278;51.810;4.712;2024-01-15T11:07:47;13.48;;;4.97;;
46551;SDS011;32278;51.810;4.712;2024-01-15T11:12:58;13.07;;;4.97;;
46551;SDS011;32278;51.810;4.712;2024-01-15T11:15:24;15.40;;;4.90;;
46551;SDS011;32278;51.810;4.712;2024-01-15T11:18:00;13.27;;;5.47;;
46551;SDS011;32278;51.810;4.712;2024-01-15T11:20:28;13.02;;;4.55;;
46551;SDS011;32278;51.810;4.712;2024-01-15T11:22:55;14.45;;;4.82;;
46551;SDS011;32278;51.810;4.712;2024-01-15T11:25:22;11.27;;;4.68;;
46551;SDS011;32278;51.810;4.712;2024-01-15T11:27:52;10.25;;;4.43;;
46551;SDS011;32278;51.810;4.712;2024-01-15T11:30:18;13.27;;;4.95;;
46551;SDS011;32278;51.810;4.712;2024-01-15T11:32:47;11.77;;;4.93;;
46551;SDS011;32278;51.810;4.712;2024-01-15T11:35:14;10.95;;;3.72;;
46551;SDS011;32278;51.810;4.712;2024-01-15T11:40:22;7.63;;;3.42;;
46551;SDS011;32278;51.810;4.712;2024-01-15T11:42:48;10.52;;;3.53;;
46551;SDS011;32278;51.810;4.712;2024-01-15T11:45:21;15.50;;;4.47;;
46551;SDS011;32278;51.810;4.712;2024-01-15T11:50:13;11.02;;;3.67;;
46551;SDS011;32278;51.810;4.712;2024-01-15T11:52:40;12.05;;;3.85;;
46551;SDS011;32278;51.810;4.712;2024-01-15T11:55:28;10.52;;;3.28;;
46551;SDS011;32278;51.810;4.712;2024-01-15T11:57:55;12.10;;;4.10;;
46551;SDS011;32278;51.810;4.712;2024-01-15T12:00:23;9.82;;;3.30;;
46551;SDS011;32278;51.810;4.712;2024-01-15T12:02:50;8.35;;;3.95;;
46551;SDS011;32278;51.810;4.712;2024-01-15T12:05:16;6.32;;;3.20;;
46551;SDS011;32278;51.810;4.712;2024-01-15T12:07:43;4.40;;;3.38;;
46551;SDS011;32278;51.810;4.712;2024-01-15T12:15:05;14.00;;;4.40;;
46551;SDS011;32278;51.810;4.712;2024-01-15T12:17:31;16.00;;;3.65;;
46551;SDS011;32278;51.810;4.712;2024-01-15T12:19:57;12.10;;;4.10;;
46551;SDS011;32278;51.810;4.712;2024-01-15T12:22:23;5.55;;;3.38;;
46551;SDS011;32278;51.810;4.712;2024-01-15T12:24:49;13.45;;;4.30;;
46551;SDS011;32278;51.810;4.712;2024-01-15T12:27:15;10.75;;;3.63;;
46551;SDS011;32278;51.810;4.712;2024-01-15T12:29:41;7.88;;;3.60;;
46551;SDS011;32278;51.810;4.712;2024-01-15T12:32:08;7.95;;;3.70;;
46551;SDS011;32278;51.810;4.712;2024-01-15T12:34:34;10.95;;;3.95;;
46551;SDS011;32278;51.810;4.712;2024-01-15T12:37:00;15.15;;;3.20;;
46551;SDS011;32278;51.810;4.712;2024-01-15T12:39:26;12.45;;;4.03;;
46551;SDS011;32278;51.810;4.712;2024-01-15T12:41:52;13.52;;;3.60;;
46551;SDS011;32278;51.810;4.712;2024-01-15T12:44:18;15.25;;;3.85;;
46551;SDS011;32278;51.810;4.712;2024-01-15T12:46:44;9.38;;;3.70;;
46551;SDS011;32278;51.810;4.712;2024-01-15T12:49:10;12.52;;;5.00;;
46551;SDS011;32278;51.810;4.712;2024-01-15T12:51:38;8.38;;;4.38;;
46551;SDS011;32278;51.810;4.712;2024-01-15T12:54:04;15.80;;;4.90;;
46551;SDS011;32278;51.810;4.712;2024-01-15T12:56:30;17.13;;;4.63;;
46551;SDS011;32278;51.810;4.712;2024-01-15T12:58:56;12.57;;;4.20;;
46551;SDS011;32278;51.810;4.712;2024-01-15T13:01:22;7.07;;;3.70;;
46551;SDS011;32278;51.810;4.712;2024-01-15T13:03:48;16.02;;;4.65;;
46551;SDS011;32278;51.810;4.712;2024-01-15T13:06:17;17.40;;;4.80;;
46551;SDS011;32278;51.810;4.712;2024-01-15T13:08:43;9.15;;;5.43;;
46551;SDS011;32278;51.810;4.712;2024-01-15T13:11:09;12.13;;;5.07;;
46551;SDS011;32278;51.810;4.712;2024-01-15T13:13:35;14.98;;;5.43;;
46551;SDS011;32278;51.810;4.712;2024-01-15T13:16:02;13.07;;;4.72;;
46551;SDS011;32278;51.810;4.712;2024-01-15T13:18:28;15.57;;;5.30;;
46551;SDS011;32278;51.810;4.712;2024-01-15T13:20:55;17.17;;;5.43;;
46551;SDS011;32278;51.810;4.712;2024-01-15T13:23:21;12.95;;;5.75;;
46551;SDS011;32278;51.810;4.712;2024-01-15T13:25:47;9.00;;;4.45;;
46551;SDS011;32278;51.810;4.712;2024-01-15T13:28:15;8.68;;;5.07;;
46551;SDS011;32278;51.810;4.712;2024-01-15T13:30:40;12.77;;;5.13;;
46551;SDS011;32278;51.810;4.712;2024-01-15T13:33:07;13.10;;;5.95;;
46551;SDS011;32278;51.810;4.712;2024-01-15T13:35:33;9.68;;;4.88;;
46551;SDS011;32278;51.810;4.712;2024-01-15T13:38:01;9.88;;;4.85;;
46551;SDS011;32278;51.810;4.712;2024-01-15T13:40:27;18.10;;;4.50;;
46551;SDS011;32278;51.810;4.712;2024-01-15T13:42:53;16.58;;;4.30;;
46551;SDS011;32278;51.810;4.712;2024-01-15T13:45:19;22.08;;;4.28;;
46551;SDS011;32278;51.810;4.712;2024-01-15T13:47:45;20.13;;;4.65;;
46551;SDS011;32278;51.810;4.712;2024-01-15T13:50:11;17.30;;;3.30;;
46551;SDS011;32278;51.810;4.712;2024-01-15T13:52:37;8.57;;;2.25;;
46551;SDS011;32278;51.810;4.712;2024-01-15T13:55:03;5.25;;;1.70;;
46551;SDS011;32278;51.810;4.712;2024-01-15T13:57:31;7.82;;;2.90;;
46551;SDS011;32278;51.810;4.712;2024-01-15T13:59:57;8.73;;;3.30;;
46551;SDS011;32278;51.810;4.712;2024-01-15T14:02:23;10.00;;;3.10;;
46551;SDS011;32278;51.810;4.712;2024-01-15T14:04:49;8.95;;;3.72;;
46551;SDS011;32278;51.810;4.712;2024-01-15T14:07:15;12.77;;;2.88;;
46551;SDS011;32278;51.810;4.712;2024-01-15T14:09:41;12.38;;;3.67;;
46551;SDS011;32278;51.810;4.712;2024-01-15T14:12:07;9.90;;;2.70;;
46551;SDS011;32278;51.810;4.712;2024-01-15T14:14:33;11.85;;;3.50;;
46551;SDS011;32278;51.810;4.712;2024-01-15T14:16:59;11.40;;;2.58;;
46551;SDS011;32278;51.810;4.712;2024-01-15T14:19:25;11.23;;;3.08;;
46551;SDS011;32278;51.810;4.712;2024-01-15T14:21:51;13.65;;;3.28;;
46551;SDS011;32278;51.810;4.712;2024-01-15T14:24:17;12.77;;;3.38;;
46551;SDS011;32278;51.810;4.712;2024-01-15T14:26:43;13.07;;;3.22;;
46551;SDS011;32278;51.810;4.712;2024-01-15T14:29:10;10.80;;;3.08;;
46551;SDS011;32278;51.810;4.712;2024-01-15T14:31:36;14.40;;;4.15;;
46551;SDS011;32278;51.810;4.712;2024-01-15T14:34:02;11.60;;;3.78;;
46551;SDS011;32278;51.810;4.712;2024-01-15T14:36:28;20.65;;;3.67;;
46551;SDS011;32278;51.810;4.712;2024-01-15T14:38:55;6.72;;;3.50;;
46551;SDS011;32278;51.810;4.712;2024-01-15T14:41:21;15.05;;;3.72;;
46551;SDS011;32278;51.810;4.712;2024-01-15T14:43:47;12.23;;;4.93;;
46551;SDS011;32278;51.810;4.712;2024-01-15T14:46:12;15.60;;;4.18;;